Airport Name : Morgantown Muni Walter L Bill Hart Fld

Other Name : Morgantown

ICAO : KMGW

IATA : MGW

FAA : MGW

Latitude : 39.642908

Longitude : -79.916314

Country : United States

Local Date and Time : 22 May 2024 17:08

 

TAF (Terminal Aerodrome Forecast)

KMGW 221722Z 2218/2318 23011KT P6SM BKN050 FM222300 24007G16KT P6SM -SHRA VCTS BKN040CB FM230100 20004KT P6SM BKN035

 

METAR (METeorological Aerodrome Report)

KMGW 222053Z VRB06KT 10SM CLR 28/16 A2992 RMK AO2 SLP121 T02780161 56014

KMGW 221953Z 22010KT 10SM CLR 28/17 A2992 RMK AO2 SLP123 T02780167

KMGW 221853Z VRB05KT 10SM FEW075 SCT100 27/18 A2992 RMK AO2 PRESFR SLP124 T02720178

KMGW 221753Z 20006KT 10SM FEW065 SCT095 BKN110 27/16 A2996 RMK AO2 SLP136 T02720161 10294 20211 58013